Snoqualmie River: Snoqualmie Falls station

back to: Snoqualmie river
Snoqualmie Falls station Summary - (NOAA Hydrograph: SQUW1)
flood stage: 13.43 ft
Latest reading:
Wed04/14 02:30 pm 4.58 ft 1438 cfs (+32/hr)
Past 24hr max:
Tue04/13 02:30 pm 4.62 ft 1470 cfs
Forecasted crests: (published Wed 04/14/21 08:48 am)
Mon04/19 11:00 am 6.21 ft 3116 cfs
Fri04/23 11:00 am 5.7 ft 2505 cfs

Snoqualmie Falls station Details

Latest Readings

Last 100 Readings:
Wed04/14 02:30 pm 4.58 ft 1438 cfs
Wed04/14 02:15 pm 4.57 ft 1430 cfs
Wed04/14 02:00 pm 4.58 ft 1438 cfs
Wed04/14 01:45 pm 4.57 ft 1430 cfs
Wed04/14 01:30 pm 4.56 ft 1421 cfs
Wed04/14 01:15 pm 4.56 ft 1421 cfs
Wed04/14 01:00 pm 4.57 ft 1430 cfs
Wed04/14 12:45 pm 4.56 ft 1421 cfs
Wed04/14 12:30 pm 4.55 ft 1413 cfs
Wed04/14 12:15 pm 4.55 ft 1413 cfs
Wed04/14 12:00 pm 4.56 ft 1421 cfs
Wed04/14 11:45 am 4.56 ft 1421 cfs
Wed04/14 11:30 am 4.56 ft 1421 cfs
Wed04/14 11:15 am 4.56 ft 1421 cfs
Wed04/14 11:00 am 4.56 ft 1421 cfs
Wed04/14 10:45 am 4.56 ft 1421 cfs
Wed04/14 10:30 am 4.57 ft 1430 cfs
Wed04/14 10:15 am 4.57 ft 1430 cfs
Wed04/14 10:00 am 4.56 ft 1421 cfs
Wed04/14 09:45 am 4.57 ft 1430 cfs
Wed04/14 09:30 am 4.57 ft 1430 cfs
Wed04/14 09:15 am 4.58 ft 1438 cfs
Wed04/14 09:00 am 4.58 ft 1438 cfs
Wed04/14 08:45 am 4.58 ft 1438 cfs
Wed04/14 08:30 am 4.58 ft 1438 cfs
Wed04/14 08:15 am 4.57 ft 1430 cfs
Wed04/14 08:00 am 4.57 ft 1430 cfs
Wed04/14 07:45 am 4.57 ft 1430 cfs
Wed04/14 07:30 am 4.58 ft 1438 cfs
Wed04/14 07:15 am 4.57 ft 1430 cfs
Wed04/14 07:00 am 4.56 ft 1421 cfs
Wed04/14 06:45 am 4.57 ft 1430 cfs
Wed04/14 06:30 am 4.57 ft 1430 cfs
Wed04/14 06:15 am 4.57 ft 1430 cfs
Wed04/14 06:00 am 4.56 ft 1421 cfs
Wed04/14 05:45 am 4.57 ft 1430 cfs
Wed04/14 05:30 am 4.56 ft 1421 cfs
Wed04/14 05:15 am 4.56 ft 1421 cfs
Wed04/14 05:00 am 4.55 ft 1413 cfs
Wed04/14 04:45 am 4.57 ft 1430 cfs
Wed04/14 04:30 am 4.56 ft 1421 cfs
Wed04/14 04:15 am 4.57 ft 1430 cfs
Wed04/14 04:00 am 4.56 ft 1421 cfs
Wed04/14 03:45 am 4.56 ft 1421 cfs
Wed04/14 03:30 am 4.56 ft 1421 cfs
Wed04/14 03:15 am 4.56 ft 1421 cfs
Wed04/14 03:00 am 4.55 ft 1413 cfs
Wed04/14 02:45 am 4.55 ft 1413 cfs
Wed04/14 02:30 am 4.56 ft 1421 cfs
Wed04/14 02:15 am 4.55 ft 1413 cfs
Wed04/14 02:00 am 4.56 ft 1421 cfs
Wed04/14 01:45 am 4.56 ft 1421 cfs
Wed04/14 01:30 am 4.55 ft 1413 cfs
Wed04/14 01:15 am 4.57 ft 1430 cfs
Wed04/14 01:00 am 4.55 ft 1413 cfs
Wed04/14 12:45 am 4.55 ft 1413 cfs
Wed04/14 12:30 am 4.55 ft 1413 cfs
Wed04/14 12:15 am 4.57 ft 1430 cfs
Wed04/14 12:00 am 4.55 ft 1413 cfs
Tue04/13 11:45 pm 4.56 ft 1421 cfs
Tue04/13 11:30 pm 4.56 ft 1421 cfs
Tue04/13 11:15 pm 4.56 ft 1421 cfs
Tue04/13 11:00 pm 4.56 ft 1421 cfs
Tue04/13 10:45 pm 4.56 ft 1421 cfs
Tue04/13 10:30 pm 4.56 ft 1421 cfs
Tue04/13 10:15 pm 4.57 ft 1430 cfs
Tue04/13 10:00 pm 4.57 ft 1430 cfs
Tue04/13 09:45 pm 4.56 ft 1421 cfs
Tue04/13 09:30 pm 4.56 ft 1421 cfs
Tue04/13 09:15 pm 4.56 ft 1421 cfs
Tue04/13 09:00 pm 4.57 ft 1430 cfs
Tue04/13 08:45 pm 4.57 ft 1430 cfs
Tue04/13 08:30 pm 4.58 ft 1438 cfs
Tue04/13 08:15 pm 4.58 ft 1438 cfs
Tue04/13 08:00 pm 4.58 ft 1438 cfs
Tue04/13 07:45 pm 4.58 ft 1438 cfs
Tue04/13 07:30 pm 4.58 ft 1438 cfs
Tue04/13 07:15 pm 4.58 ft 1438 cfs
Tue04/13 07:00 pm 4.58 ft 1438 cfs
Tue04/13 06:45 pm 4.58 ft 1438 cfs
Tue04/13 06:30 pm 4.59 ft 1446 cfs
Tue04/13 06:15 pm 4.58 ft 1438 cfs
Tue04/13 06:00 pm 4.58 ft 1438 cfs
Tue04/13 05:45 pm 4.59 ft 1446 cfs
Tue04/13 05:30 pm 4.59 ft 1446 cfs
Tue04/13 05:15 pm 4.6 ft 1454 cfs
Tue04/13 05:00 pm 4.6 ft 1454 cfs
Tue04/13 04:45 pm 4.6 ft 1454 cfs
Tue04/13 04:30 pm 4.6 ft 1454 cfs
Tue04/13 04:15 pm 4.61 ft 1462 cfs
Tue04/13 04:00 pm 4.59 ft 1446 cfs
Tue04/13 03:45 pm 4.6 ft 1454 cfs
Tue04/13 03:30 pm 4.6 ft 1454 cfs
Tue04/13 03:15 pm 4.59 ft 1446 cfs
Tue04/13 03:00 pm 4.6 ft 1454 cfs
Tue04/13 02:45 pm 4.61 ft 1462 cfs
Tue04/13 02:30 pm 4.62 ft 1470 cfs
Tue04/13 02:15 pm 4.61 ft 1462 cfs
Tue04/13 02:00 pm 4.61 ft 1462 cfs
Tue04/13 01:45 pm 4.61 ft 1462 cfs

Latest Forecasts

Currently Forecasted Readings:
Wed04/14 11:00 am 4.52 ft 1393 cfs
Wed04/14 05:00 pm 4.47 ft 1350 cfs
Wed04/14 11:00 pm 4.54 ft 1403 cfs
Thu04/15 05:00 am 4.76 ft 1590 cfs
Thu04/15 11:00 am 4.93 ft 1742 cfs
Thu04/15 05:00 pm 5.0 ft 1800 cfs
Thu04/15 11:00 pm 5.12 ft 1919 cfs
Fri04/16 05:00 am 5.34 ft 2128 cfs
Fri04/16 11:00 am 5.48 ft 2273 cfs
Fri04/16 05:00 pm 5.49 ft 2282 cfs
Fri04/16 11:00 pm 5.53 ft 2323 cfs
Sat04/17 05:00 am 5.66 ft 2469 cfs
Sat04/17 11:00 am 5.76 ft 2573 cfs
Sat04/17 05:00 pm 5.76 ft 2576 cfs
Sat04/17 11:00 pm 5.8 ft 2621 cfs
Sun04/18 05:00 am 5.93 ft 2770 cfs
Sun04/18 11:00 am 6.02 ft 2880 cfs
Sun04/18 05:00 pm 6.03 ft 2885 cfs
Sun04/18 11:00 pm 6.05 ft 2914 cfs
Mon04/19 05:00 am 6.15 ft 3037 cfs
Mon04/19 11:00 am 6.21 ft 3116 cfs
Mon04/19 05:00 pm 6.17 ft 3059 cfs
Mon04/19 11:00 pm 6.11 ft 2988 cfs
Tue04/20 05:00 am 6.11 ft 2987 cfs
Tue04/20 11:00 am 6.1 ft 2979 cfs
Tue04/20 05:00 pm 6.04 ft 2909 cfs
Tue04/20 11:00 pm 5.98 ft 2833 cfs
Wed04/21 05:00 am 5.96 ft 2804 cfs
Wed04/21 11:00 am 5.91 ft 2745 cfs
Wed04/21 05:00 pm 5.81 ft 2638 cfs
Wed04/21 11:00 pm 5.75 ft 2564 cfs
Thu04/22 05:00 am 5.74 ft 2555 cfs
Thu04/22 11:00 am 5.74 ft 2552 cfs
Thu04/22 05:00 pm 5.68 ft 2490 cfs
Thu04/22 11:00 pm 5.63 ft 2431 cfs
Fri04/23 05:00 am 5.65 ft 2454 cfs
Fri04/23 11:00 am 5.7 ft 2505 cfs
Fri04/23 05:00 pm 5.69 ft 2500 cfs
Fri04/23 11:00 pm 5.66 ft 2471 cfs
Sat04/24 05:00 am 5.69 ft 2497 cfs

Snoqualmie River flood gauge data supplied by the
National Weather Service Northwest River Forecast Center.

Sign up for Floodzilla alerts.